sensor_id;sensor_type;location;lat;lon;timestamp;P1;durP1;ratioP1;P2;durP2;ratioP2
49440;SDS011;35317;51.978;6.296;2022-10-22T00:04:58;46.17;;;21.23;;
49440;SDS011;35317;51.978;6.296;2022-10-22T00:09:58;49.92;;;23.23;;
49440;SDS011;35317;51.978;6.296;2022-10-22T00:14:59;41.35;;;19.70;;
49440;SDS011;35317;51.978;6.296;2022-10-22T00:20:00;48.15;;;23.33;;
49440;SDS011;35317;51.978;6.296;2022-10-22T00:25:01;46.75;;;22.02;;
49440;SDS011;35317;51.978;6.296;2022-10-22T00:30:02;46.45;;;22.13;;
49440;SDS011;35317;51.978;6.296;2022-10-22T00:35:03;45.55;;;22.65;;
49440;SDS011;35317;51.978;6.296;2022-10-22T00:40:05;46.47;;;23.35;;
49440;SDS011;35317;51.978;6.296;2022-10-22T00:50:15;48.55;;;21.52;;
49440;SDS011;35317;51.978;6.296;2022-10-22T00:55:19;60.83;;;27.27;;
49440;SDS011;35317;51.978;6.296;2022-10-22T01:00:20;57.55;;;27.23;;
49440;SDS011;35317;51.978;6.296;2022-10-22T01:05:22;67.90;;;30.05;;
49440;SDS011;35317;51.978;6.296;2022-10-22T01:10:30;61.28;;;28.95;;
49440;SDS011;35317;51.978;6.296;2022-10-22T01:16:08;75.63;;;30.30;;
49440;SDS011;35317;51.978;6.296;2022-10-22T01:21:32;66.07;;;30.27;;
49440;SDS011;35317;51.978;6.296;2022-10-22T01:27:05;61.95;;;30.40;;
49440;SDS011;35317;51.978;6.296;2022-10-22T01:32:25;67.40;;;30.30;;
49440;SDS011;35317;51.978;6.296;2022-10-22T01:37:30;67.50;;;29.73;;
49440;SDS011;35317;51.978;6.296;2022-10-22T01:42:37;65.50;;;30.05;;
49440;SDS011;35317;51.978;6.296;2022-10-22T01:47:41;72.32;;;31.90;;
49440;SDS011;35317;51.978;6.296;2022-10-22T01:53:00;62.85;;;30.90;;
49440;SDS011;35317;51.978;6.296;2022-10-22T02:03:34;75.53;;;32.92;;
49440;SDS011;35317;51.978;6.296;2022-10-22T02:08:44;71.88;;;32.10;;
49440;SDS011;35317;51.978;6.296;2022-10-22T02:13:47;70.30;;;34.60;;
49440;SDS011;35317;51.978;6.296;2022-10-22T02:18:53;94.20;;;38.00;;
49440;SDS011;35317;51.978;6.296;2022-10-22T02:23:56;96.30;;;40.87;;
49440;SDS011;35317;51.978;6.296;2022-10-22T02:34:37;91.25;;;36.47;;
49440;SDS011;35317;51.978;6.296;2022-10-22T02:39:38;89.18;;;34.28;;
49440;SDS011;35317;51.978;6.296;2022-10-22T02:44:39;76.95;;;32.80;;
49440;SDS011;35317;51.978;6.296;2022-10-22T02:49:40;82.05;;;32.30;;
49440;SDS011;35317;51.978;6.296;2022-10-22T02:54:40;81.47;;;32.20;;
49440;SDS011;35317;51.978;6.296;2022-10-22T02:59:41;66.68;;;30.08;;
49440;SDS011;35317;51.978;6.296;2022-10-22T03:04:42;73.45;;;30.20;;
49440;SDS011;35317;51.978;6.296;2022-10-22T03:09:43;64.13;;;28.65;;
49440;SDS011;35317;51.978;6.296;2022-10-22T03:14:43;71.47;;;29.13;;
49440;SDS011;35317;51.978;6.296;2022-10-22T03:19:44;64.45;;;28.45;;
49440;SDS011;35317;51.978;6.296;2022-10-22T03:24:46;75.50;;;28.67;;
49440;SDS011;35317;51.978;6.296;2022-10-22T03:29:50;66.47;;;28.23;;
49440;SDS011;35317;51.978;6.296;2022-10-22T03:34:51;73.15;;;29.67;;
49440;SDS011;35317;51.978;6.296;2022-10-22T03:39:53;76.32;;;30.88;;
49440;SDS011;35317;51.978;6.296;2022-10-22T03:44:54;76.57;;;30.45;;
49440;SDS011;35317;51.978;6.296;2022-10-22T03:49:55;77.15;;;30.33;;
49440;SDS011;35317;51.978;6.296;2022-10-22T03:54:56;74.25;;;29.27;;
49440;SDS011;35317;51.978;6.296;2022-10-22T03:59:56;69.10;;;28.42;;
49440;SDS011;35317;51.978;6.296;2022-10-22T04:04:57;77.28;;;28.77;;
49440;SDS011;35317;51.978;6.296;2022-10-22T04:09:58;69.22;;;27.67;;
49440;SDS011;35317;51.978;6.296;2022-10-22T04:14:58;73.13;;;27.98;;
49440;SDS011;35317;51.978;6.296;2022-10-22T04:19:59;66.32;;;26.40;;
49440;SDS011;35317;51.978;6.296;2022-10-22T04:25:00;69.65;;;30.02;;
49440;SDS011;35317;51.978;6.296;2022-10-22T04:30:03;78.03;;;28.75;;
49440;SDS011;35317;51.978;6.296;2022-10-22T04:35:05;106.40;;;36.05;;
49440;SDS011;35317;51.978;6.296;2022-10-22T04:40:06;83.93;;;33.15;;
49440;SDS011;35317;51.978;6.296;2022-10-22T04:45:08;90.57;;;33.22;;
49440;SDS011;35317;51.978;6.296;2022-10-22T04:50:09;108.05;;;34.92;;
49440;SDS011;35317;51.978;6.296;2022-10-22T04:55:10;87.68;;;32.45;;
49440;SDS011;35317;51.978;6.296;2022-10-22T05:00:11;87.35;;;32.70;;
49440;SDS011;35317;51.978;6.296;2022-10-22T05:05:12;91.88;;;32.60;;
49440;SDS011;35317;51.978;6.296;2022-10-22T05:10:12;74.43;;;32.50;;
49440;SDS011;35317;51.978;6.296;2022-10-22T05:15:13;71.32;;;31.02;;
49440;SDS011;35317;51.978;6.296;2022-10-22T05:20:14;84.30;;;32.92;;
49440;SDS011;35317;51.978;6.296;2022-10-22T05:25:15;84.68;;;32.78;;
49440;SDS011;35317;51.978;6.296;2022-10-22T05:30:15;62.95;;;28.33;;
49440;SDS011;35317;51.978;6.296;2022-10-22T05:35:16;76.43;;;32.03;;
49440;SDS011;35317;51.978;6.296;2022-10-22T05:40:17;77.95;;;31.58;;
49440;SDS011;35317;51.978;6.296;2022-10-22T05:45:18;89.20;;;34.03;;
49440;SDS011;35317;51.978;6.296;2022-10-22T05:50:18;78.97;;;30.55;;
49440;SDS011;35317;51.978;6.296;2022-10-22T05:55:19;61.25;;;27.25;;
49440;SDS011;35317;51.978;6.296;2022-10-22T06:00:20;83.68;;;31.52;;
49440;SDS011;35317;51.978;6.296;2022-10-22T06:05:21;80.15;;;30.80;;
49440;SDS011;35317;51.978;6.296;2022-10-22T06:10:21;74.65;;;29.08;;
49440;SDS011;35317;51.978;6.296;2022-10-22T06:15:23;68.63;;;28.13;;
49440;SDS011;35317;51.978;6.296;2022-10-22T06:20:23;66.88;;;27.85;;
49440;SDS011;35317;51.978;6.296;2022-10-22T06:25:24;74.03;;;28.92;;
49440;SDS011;35317;51.978;6.296;2022-10-22T06:30:25;82.25;;;28.90;;
49440;SDS011;35317;51.978;6.296;2022-10-22T06:35:26;65.68;;;26.27;;
49440;SDS011;35317;51.978;6.296;2022-10-22T06:40:26;63.92;;;28.42;;
49440;SDS011;35317;51.978;6.296;2022-10-22T06:45:27;57.90;;;26.02;;
49440;SDS011;35317;51.978;6.296;2022-10-22T06:50:28;62.72;;;26.25;;
49440;SDS011;35317;51.978;6.296;2022-10-22T06:55:29;55.22;;;23.90;;
49440;SDS011;35317;51.978;6.296;2022-10-22T07:00:29;59.97;;;23.23;;
49440;SDS011;35317;51.978;6.296;2022-10-22T07:05:32;42.08;;;19.90;;
49440;SDS011;35317;51.978;6.296;2022-10-22T07:10:33;54.35;;;21.17;;
49440;SDS011;35317;51.978;6.296;2022-10-22T07:15:34;50.67;;;19.70;;
49440;SDS011;35317;51.978;6.296;2022-10-22T07:20:35;41.65;;;17.38;;
49440;SDS011;35317;51.978;6.296;2022-10-22T07:25:35;36.78;;;16.60;;
49440;SDS011;35317;51.978;6.296;2022-10-22T07:30:36;30.73;;;14.40;;
49440;SDS011;35317;51.978;6.296;2022-10-22T07:35:38;40.88;;;14.98;;
49440;SDS011;35317;51.978;6.296;2022-10-22T07:40:39;40.20;;;14.70;;
49440;SDS011;35317;51.978;6.296;2022-10-22T07:45:40;35.70;;;14.13;;
49440;SDS011;35317;51.978;6.296;2022-10-22T07:50:41;40.90;;;15.77;;
49440;SDS011;35317;51.978;6.296;2022-10-22T07:55:41;28.20;;;12.68;;
49440;SDS011;35317;51.978;6.296;2022-10-22T08:00:42;30.77;;;12.73;;
49440;SDS011;35317;51.978;6.296;2022-10-22T08:05:44;28.23;;;12.40;;
49440;SDS011;35317;51.978;6.296;2022-10-22T08:10:45;26.10;;;11.07;;
49440;SDS011;35317;51.978;6.296;2022-10-22T08:15:47;31.95;;;11.98;;
49440;SDS011;35317;51.978;6.296;2022-10-22T08:20:48;28.33;;;9.85;;
49440;SDS011;35317;51.978;6.296;2022-10-22T08:25:49;25.40;;;8.68;;
49440;SDS011;35317;51.978;6.296;2022-10-22T08:30:50;23.85;;;9.10;;
49440;SDS011;35317;51.978;6.296;2022-10-22T08:35:50;23.88;;;8.55;;
49440;SDS011;35317;51.978;6.296;2022-10-22T08:40:53;16.65;;;6.30;;
49440;SDS011;35317;51.978;6.296;2022-10-22T08:51:26;16.45;;;4.93;;
49440;SDS011;35317;51.978;6.296;2022-10-22T08:56:34;19.33;;;4.30;;
49440;SDS011;35317;51.978;6.296;2022-10-22T09:01:40;16.02;;;4.35;;
49440;SDS011;35317;51.978;6.296;2022-10-22T09:06:45;20.58;;;4.47;;
49440;SDS011;35317;51.978;6.296;2022-10-22T09:11:49;13.00;;;3.50;;
49440;SDS011;35317;51.978;6.296;2022-10-22T09:21:57;12.07;;;3.05;;
49440;SDS011;35317;51.978;6.296;2022-10-22T09:27:29;20.42;;;3.50;;
49440;SDS011;35317;51.978;6.296;2022-10-22T09:32:30;13.35;;;3.08;;
49440;SDS011;35317;51.978;6.296;2022-10-22T09:37:32;12.40;;;3.00;;
49440;SDS011;35317;51.978;6.296;2022-10-22T09:42:32;17.58;;;3.70;;
49440;SDS011;35317;51.978;6.296;2022-10-22T09:47:37;12.70;;;3.47;;
49440;SDS011;35317;51.978;6.296;2022-10-22T09:52:40;15.65;;;3.47;;
49440;SDS011;35317;51.978;6.296;2022-10-22T09:57:41;15.55;;;3.28;;
49440;SDS011;35317;51.978;6.296;2022-10-22T10:02:42;10.27;;;2.65;;
49440;SDS011;35317;51.978;6.296;2022-10-22T10:07:42;12.15;;;3.42;;
49440;SDS011;35317;51.978;6.296;2022-10-22T10:13:06;12.75;;;3.10;;
49440;SDS011;35317;51.978;6.296;2022-10-22T10:19:02;10.77;;;3.15;;
49440;SDS011;35317;51.978;6.296;2022-10-22T10:30:30;25.60;;;4.47;;
49440;SDS011;35317;51.978;6.296;2022-10-22T10:41:13;17.00;;;4.18;;
49440;SDS011;35317;51.978;6.296;2022-10-22T10:51:52;18.63;;;4.47;;
49440;SDS011;35317;51.978;6.296;2022-10-22T11:09:33;15.45;;;4.43;;
49440;SDS011;35317;51.978;6.296;2022-10-22T11:14:05;13.73;;;4.22;;
49440;SDS011;35317;51.978;6.296;2022-10-22T11:19:40;13.10;;;4.40;;
49440;SDS011;35317;51.978;6.296;2022-10-22T11:25:37;15.73;;;5.22;;
49440;SDS011;35317;51.978;6.296;2022-10-22T11:30:22;15.15;;;3.75;;
49440;SDS011;35317;51.978;6.296;2022-10-22T11:35:26;15.73;;;5.80;;
49440;SDS011;35317;51.978;6.296;2022-10-22T11:40:31;14.60;;;4.18;;
49440;SDS011;35317;51.978;6.296;2022-10-22T11:45:38;12.80;;;3.97;;
49440;SDS011;35317;51.978;6.296;2022-10-22T11:55:57;16.90;;;4.65;;
49440;SDS011;35317;51.978;6.296;2022-10-22T12:01:26;15.30;;;4.43;;
49440;SDS011;35317;51.978;6.296;2022-10-22T12:06:53;15.70;;;4.10;;
49440;SDS011;35317;51.978;6.296;2022-10-22T12:12:04;11.60;;;4.43;;
49440;SDS011;35317;51.978;6.296;2022-10-22T12:17:13;15.40;;;4.45;;
49440;SDS011;35317;51.978;6.296;2022-10-22T12:22:20;15.18;;;3.47;;
49440;SDS011;35317;51.978;6.296;2022-10-22T12:27:26;11.27;;;3.15;;
49440;SDS011;35317;51.978;6.296;2022-10-22T12:32:34;16.13;;;3.50;;
49440;SDS011;35317;51.978;6.296;2022-10-22T12:42:38;14.55;;;4.07;;
49440;SDS011;35317;51.978;6.296;2022-10-22T12:47:47;10.10;;;2.38;;
49440;SDS011;35317;51.978;6.296;2022-10-22T12:52:51;11.55;;;3.08;;
49440;SDS011;35317;51.978;6.296;2022-10-22T12:57:54;21.40;;;3.97;;
49440;SDS011;35317;51.978;6.296;2022-10-22T13:02:55;18.30;;;3.65;;
49440;SDS011;35317;51.978;6.296;2022-10-22T13:08:02;14.67;;;3.83;;
49440;SDS011;35317;51.978;6.296;2022-10-22T13:13:28;18.08;;;6.30;;
49440;SDS011;35317;51.978;6.296;2022-10-22T13:18:41;16.92;;;4.00;;
49440;SDS011;35317;51.978;6.296;2022-10-22T13:24:18;13.32;;;4.25;;
49440;SDS011;35317;51.978;6.296;2022-10-22T13:29:20;18.52;;;3.80;;
49440;SDS011;35317;51.978;6.296;2022-10-22T13:34:23;14.90;;;3.33;;
49440;SDS011;35317;51.978;6.296;2022-10-22T13:39:32;9.73;;;3.55;;
49440;SDS011;35317;51.978;6.296;2022-10-22T13:44:34;13.25;;;4.18;;
49440;SDS011;35317;51.978;6.296;2022-10-22T13:49:35;11.63;;;3.67;;
49440;SDS011;35317;51.978;6.296;2022-10-22T13:54:36;15.48;;;3.97;;
49440;SDS011;35317;51.978;6.296;2022-10-22T13:59:36;14.45;;;4.25;;
49440;SDS011;35317;51.978;6.296;2022-10-22T14:04:38;19.75;;;4.95;;
49440;SDS011;35317;51.978;6.296;2022-10-22T14:09:42;17.95;;;4.72;;
49440;SDS011;35317;51.978;6.296;2022-10-22T14:14:43;18.05;;;4.43;;
49440;SDS011;35317;51.978;6.296;2022-10-22T14:19:44;15.60;;;5.13;;
49440;SDS011;35317;51.978;6.296;2022-10-22T14:24:46;34.50;;;6.37;;
49440;SDS011;35317;51.978;6.296;2022-10-22T14:29:48;20.02;;;5.13;;
49440;SDS011;35317;51.978;6.296;2022-10-22T14:34:49;34.95;;;5.82;;
49440;SDS011;35317;51.978;6.296;2022-10-22T14:39:50;19.13;;;5.15;;
49440;SDS011;35317;51.978;6.296;2022-10-22T14:44:53;15.38;;;3.53;;
49440;SDS011;35317;51.978;6.296;2022-10-22T14:49:53;14.65;;;3.13;;
49440;SDS011;35317;51.978;6.296;2022-10-22T14:54:57;19.58;;;3.83;;
49440;SDS011;35317;51.978;6.296;2022-10-22T15:04:59;15.45;;;4.13;;
49440;SDS011;35317;51.978;6.296;2022-10-22T15:09:59;23.15;;;3.92;;
49440;SDS011;35317;51.978;6.296;2022-10-22T15:15:00;17.45;;;3.90;;
49440;SDS011;35317;51.978;6.296;2022-10-22T15:20:02;16.30;;;4.20;;
49440;SDS011;35317;51.978;6.296;2022-10-22T15:25:05;15.07;;;3.85;;
49440;SDS011;35317;51.978;6.296;2022-10-22T15:30:12;15.25;;;3.25;;
49440;SDS011;35317;51.978;6.296;2022-10-22T15:35:13;17.15;;;8.15;;
49440;SDS011;35317;51.978;6.296;2022-10-22T15:40:14;17.45;;;4.47;;
49440;SDS011;35317;51.978;6.296;2022-10-22T15:45:14;19.20;;;6.72;;
49440;SDS011;35317;51.978;6.296;2022-10-22T15:50:15;25.00;;;6.85;;
49440;SDS011;35317;51.978;6.296;2022-10-22T15:55:16;21.13;;;7.95;;
49440;SDS011;35317;51.978;6.296;2022-10-22T16:00:17;33.67;;;14.52;;
49440;SDS011;35317;51.978;6.296;2022-10-22T16:05:18;40.40;;;18.95;;
49440;SDS011;35317;51.978;6.296;2022-10-22T16:10:19;41.10;;;20.48;;
49440;SDS011;35317;51.978;6.296;2022-10-22T16:15:20;57.90;;;23.83;;
49440;SDS011;35317;51.978;6.296;2022-10-22T16:20:20;61.72;;;27.38;;
49440;SDS011;35317;51.978;6.296;2022-10-22T16:25:21;28.13;;;13.40;;
49440;SDS011;35317;51.978;6.296;2022-10-22T16:30:23;24.48;;;11.68;;
49440;SDS011;35317;51.978;6.296;2022-10-22T16:35:24;26.92;;;10.27;;
49440;SDS011;35317;51.978;6.296;2022-10-22T16:40:25;25.38;;;9.15;;
49440;SDS011;35317;51.978;6.296;2022-10-22T16:45:28;22.58;;;8.45;;
49440;SDS011;35317;51.978;6.296;2022-10-22T16:50:29;24.48;;;9.25;;
49440;SDS011;35317;51.978;6.296;2022-10-22T16:55:29;19.90;;;9.10;;
49440;SDS011;35317;51.978;6.296;2022-10-22T17:00:36;22.67;;;9.18;;
49440;SDS011;35317;51.978;6.296;2022-10-22T17:05:36;17.20;;;8.95;;
49440;SDS011;35317;51.978;6.296;2022-10-22T17:10:37;22.33;;;8.65;;
49440;SDS011;35317;51.978;6.296;2022-10-22T17:15:38;31.25;;;12.98;;
49440;SDS011;35317;51.978;6.296;2022-10-22T17:20:40;30.27;;;14.65;;
49440;SDS011;35317;51.978;6.296;2022-10-22T17:25:44;29.98;;;14.43;;
49440;SDS011;35317;51.978;6.296;2022-10-22T17:30:45;31.15;;;17.73;;
49440;SDS011;35317;51.978;6.296;2022-10-22T17:35:46;57.15;;;26.55;;
49440;SDS011;35317;51.978;6.296;2022-10-22T17:40:48;36.50;;;21.48;;
49440;SDS011;35317;51.978;6.296;2022-10-22T17:45:49;37.50;;;19.10;;
49440;SDS011;35317;51.978;6.296;2022-10-22T17:50:49;36.25;;;18.40;;
49440;SDS011;35317;51.978;6.296;2022-10-22T17:55:56;28.95;;;14.85;;
49440;SDS011;35317;51.978;6.296;2022-10-22T18:01:02;21.85;;;13.73;;
49440;SDS011;35317;51.978;6.296;2022-10-22T18:06:04;32.10;;;16.00;;
49440;SDS011;35317;51.978;6.296;2022-10-22T18:11:11;34.55;;;18.45;;
49440;SDS011;35317;51.978;6.296;2022-10-22T18:16:17;40.75;;;21.02;;
49440;SDS011;35317;51.978;6.296;2022-10-22T18:21:19;48.63;;;24.10;;
49440;SDS011;35317;51.978;6.296;2022-10-22T18:26:23;39.97;;;20.83;;
49440;SDS011;35317;51.978;6.296;2022-10-22T18:31:24;38.83;;;22.75;;
49440;SDS011;35317;51.978;6.296;2022-10-22T18:36:26;47.00;;;23.05;;
49440;SDS011;35317;51.978;6.296;2022-10-22T18:41:28;33.45;;;22.27;;
49440;SDS011;35317;51.978;6.296;2022-10-22T18:46:31;39.85;;;24.05;;
49440;SDS011;35317;51.978;6.296;2022-10-22T18:51:34;41.83;;;20.23;;
49440;SDS011;35317;51.978;6.296;2022-10-22T18:56:35;36.92;;;20.92;;
49440;SDS011;35317;51.978;6.296;2022-10-22T19:01:38;43.55;;;19.73;;
49440;SDS011;35317;51.978;6.296;2022-10-22T19:06:39;35.38;;;21.52;;
49440;SDS011;35317;51.978;6.296;2022-10-22T19:11:42;29.92;;;18.10;;
49440;SDS011;35317;51.978;6.296;2022-10-22T19:16:44;34.58;;;20.30;;
49440;SDS011;35317;51.978;6.296;2022-10-22T19:21:45;34.80;;;20.63;;
49440;SDS011;35317;51.978;6.296;2022-10-22T19:26:47;41.00;;;19.85;;
49440;SDS011;35317;51.978;6.296;2022-10-22T19:31:48;36.47;;;20.73;;
49440;SDS011;35317;51.978;6.296;2022-10-22T19:36:49;33.78;;;21.55;;
49440;SDS011;35317;51.978;6.296;2022-10-22T19:41:51;31.65;;;19.80;;
49440;SDS011;35317;51.978;6.296;2022-10-22T19:46:51;34.63;;;20.20;;
49440;SDS011;35317;51.978;6.296;2022-10-22T19:51:52;31.92;;;18.35;;
49440;SDS011;35317;51.978;6.296;2022-10-22T19:56:53;33.63;;;21.10;;
49440;SDS011;35317;51.978;6.296;2022-10-22T20:01:54;43.85;;;23.33;;
49440;SDS011;35317;51.978;6.296;2022-10-22T20:06:54;42.47;;;23.27;;
49440;SDS011;35317;51.978;6.296;2022-10-22T20:11:55;33.03;;;19.17;;
49440;SDS011;35317;51.978;6.296;2022-10-22T20:16:56;41.80;;;20.33;;
49440;SDS011;35317;51.978;6.296;2022-10-22T20:21:57;34.83;;;19.80;;
49440;SDS011;35317;51.978;6.296;2022-10-22T20:26:57;32.38;;;21.27;;
49440;SDS011;35317;51.978;6.296;2022-10-22T20:31:58;39.15;;;24.02;;
49440;SDS011;35317;51.978;6.296;2022-10-22T20:36:59;39.97;;;21.65;;
49440;SDS011;35317;51.978;6.296;2022-10-22T20:42:00;36.30;;;22.02;;
49440;SDS011;35317;51.978;6.296;2022-10-22T20:47:01;34.15;;;21.67;;
49440;SDS011;35317;51.978;6.296;2022-10-22T20:52:01;33.70;;;22.27;;
49440;SDS011;35317;51.978;6.296;2022-10-22T20:57:02;39.35;;;23.20;;
49440;SDS011;35317;51.978;6.296;2022-10-22T21:02:03;35.10;;;22.52;;
49440;SDS011;35317;51.978;6.296;2022-10-22T21:07:05;34.03;;;21.58;;
49440;SDS011;35317;51.978;6.296;2022-10-22T21:12:06;33.70;;;21.75;;
49440;SDS011;35317;51.978;6.296;2022-10-22T21:17:06;34.90;;;23.20;;
49440;SDS011;35317;51.978;6.296;2022-10-22T21:22:07;34.60;;;23.40;;
49440;SDS011;35317;51.978;6.296;2022-10-22T21:27:08;32.72;;;21.73;;
49440;SDS011;35317;51.978;6.296;2022-10-22T21:32:08;33.63;;;22.00;;
49440;SDS011;35317;51.978;6.296;2022-10-22T21:37:10;36.97;;;22.88;;
49440;SDS011;35317;51.978;6.296;2022-10-22T21:42:13;37.05;;;22.80;;
49440;SDS011;35317;51.978;6.296;2022-10-22T21:47:14;31.67;;;21.83;;
49440;SDS011;35317;51.978;6.296;2022-10-22T21:52:15;44.30;;;27.08;;
49440;SDS011;35317;51.978;6.296;2022-10-22T21:57:16;44.75;;;23.90;;
49440;SDS011;35317;51.978;6.296;2022-10-22T22:02:17;42.03;;;26.90;;
49440;SDS011;35317;51.978;6.296;2022-10-22T22:07:17;42.30;;;22.40;;
49440;SDS011;35317;51.978;6.296;2022-10-22T22:12:18;37.22;;;23.23;;
49440;SDS011;35317;51.978;6.296;2022-10-22T22:17:20;39.58;;;21.17;;
49440;SDS011;35317;51.978;6.296;2022-10-22T22:22:20;46.05;;;23.17;;
49440;SDS011;35317;51.978;6.296;2022-10-22T22:27:21;31.02;;;20.58;;
49440;SDS011;35317;51.978;6.296;2022-10-22T22:32:22;32.47;;;19.30;;
49440;SDS011;35317;51.978;6.296;2022-10-22T22:37:23;34.75;;;21.63;;
49440;SDS011;35317;51.978;6.296;2022-10-22T22:42:24;32.65;;;19.42;;
49440;SDS011;35317;51.978;6.296;2022-10-22T22:47:24;29.85;;;18.35;;
49440;SDS011;35317;51.978;6.296;2022-10-22T22:52:25;29.20;;;18.15;;
49440;SDS011;35317;51.978;6.296;2022-10-22T22:57:26;43.10;;;20.55;;
49440;SDS011;35317;51.978;6.296;2022-10-22T23:02:26;38.10;;;22.75;;
49440;SDS011;35317;51.978;6.296;2022-10-22T23:07:27;35.65;;;20.13;;
49440;SDS011;35317;51.978;6.296;2022-10-22T23:12:28;27.20;;;19.05;;
49440;SDS011;35317;51.978;6.296;2022-10-22T23:17:29;42.05;;;23.38;;
49440;SDS011;35317;51.978;6.296;2022-10-22T23:22:29;42.42;;;23.27;;
49440;SDS011;35317;51.978;6.296;2022-10-22T23:27:30;37.10;;;22.65;;
49440;SDS011;35317;51.978;6.296;2022-10-22T23:32:31;36.20;;;22.50;;
49440;SDS011;35317;51.978;6.296;2022-10-22T23:37:31;47.10;;;23.20;;
49440;SDS011;35317;51.978;6.296;2022-10-22T23:42:32;39.10;;;21.48;;
49440;SDS011;35317;51.978;6.296;2022-10-22T23:47:33;49.83;;;24.88;;
49440;SDS011;35317;51.978;6.296;2022-10-22T23:52:33;39.55;;;21.73;;
49440;SDS011;35317;51.978;6.296;2022-10-22T23:57:34;40.80;;;22.65;;
